Time,TemperatureF,DewpointF,PressureIn,WindDirection,WindDirectionDegrees,WindSpeedMPH,WindSpeedGustMPH,Humidity,HourlyPrecipIn,Conditions,Clouds,dailyrainin,SolarRadiationWatts/m^2,SoftwareType,DateUTC
2013-03-05 00:17:00,54.9,48.0,30.17,NW,317,5.0,-999.0,78,-99.99,,,0.00,0,weatherlink.com 1.10,2013-03-05 05:17:00,
2013-03-05 00:32:00,54.8,48.0,30.16,WNW,302,6.0,-999.0,79,-99.99,,,0.00,0,weatherlink.com 1.10,2013-03-05 05:32:00,
2013-03-05 00:47:00,54.8,48.0,30.16,NW,309,6.0,-999.0,79,-99.99,,,0.00,0,weatherlink.com 1.10,2013-03-05 05:47:00,
2013-03-05 01:02:00,54.6,48.0,30.16,WNW,299,5.0,-999.0,79,-99.99,,,0.00,0,weatherlink.com 1.10,2013-03-05 06:02:00,
2013-03-05 01:17:00,54.4,48.0,30.15,WNW,296,1.0,-999.0,79,-99.99,,,0.00,0,weatherlink.com 1.10,2013-03-05 06:17:00,
2013-03-05 01:32:00,54.6,48.0,30.15,WNW,288,1.0,-999.0,79,-99.99,,,0.00,0,weatherlink.com 1.10,2013-03-05 06:32:00,
2013-03-05 01:47:00,54.5,48.0,30.15,NW,304,6.0,-999.0,80,-99.99,,,0.00,0,weatherlink.com 1.10,2013-03-05 06:47:00,
2013-03-05 02:02:00,54.6,49.0,30.15,WNW,298,7.0,-999.0,80,-99.99,,,0.00,0,weatherlink.com 1.10,2013-03-05 07:02:00,
2013-03-05 02:17:00,54.6,49.0,30.14,WNW,299,6.0,-999.0,80,-99.99,,,0.00,0,weatherlink.com 1.10,2013-03-05 07:17:00,
2013-03-05 02:32:00,54.6,48.0,30.14,WNW,302,5.0,-999.0,79,-99.99,,,0.00,0,weatherlink.com 1.10,2013-03-05 07:32:00,
2013-03-05 02:47:00,54.5,48.0,30.13,NW,319,2.0,-999.0,79,-99.99,,,0.00,0,weatherlink.com 1.10,2013-03-05 07:47:00,
2013-03-05 03:02:00,54.8,48.0,30.13,NW,310,5.0,-999.0,79,-99.99,,,0.00,0,weatherlink.com 1.10,2013-03-05 08:02:00,
2013-03-05 03:17:00,55.1,49.0,30.13,NW,319,1.0,-999.0,79,-99.99,,,0.00,0,weatherlink.com 1.10,2013-03-05 08:17:00,
2013-03-05 03:32:00,54.8,48.0,30.13,NW,312,0.0,-999.0,78,-99.99,,,0.00,0,weatherlink.com 1.10,2013-03-05 08:32:00,
2013-03-05 03:47:00,55.0,49.0,30.13,NW,308,0.0,-999.0,79,-99.99,,,0.00,0,weatherlink.com 1.10,2013-03-05 08:47:00,
2013-03-05 04:02:00,54.8,48.0,30.13,WNW,292,0.0,-999.0,79,-99.99,,,0.00,0,weatherlink.com 1.10,2013-03-05 09:02:00,
2013-03-05 04:17:00,54.7,48.0,30.13,WNW,288,0.0,-999.0,79,-99.99,,,0.00,0,weatherlink.com 1.10,2013-03-05 09:17:00,
2013-03-05 04:32:00,54.6,48.0,30.13,WNW,294,0.0,-999.0,79,-99.99,,,0.00,0,weatherlink.com 1.10,2013-03-05 09:32:00,
2013-03-05 04:47:00,54.8,48.0,30.14,NW,308,0.0,-999.0,79,-99.99,,,0.00,0,weatherlink.com 1.10,2013-03-05 09:47:00,
2013-03-05 05:02:00,54.8,48.0,30.14,WNW,296,0.0,-999.0,79,-99.99,,,0.00,0,weatherlink.com 1.10,2013-03-05 10:02:00,
2013-03-05 05:17:00,54.8,49.0,30.15,WNW,298,0.0,-999.0,80,-99.99,,,0.00,0,weatherlink.com 1.10,2013-03-05 10:17:00,
2013-03-05 05:32:00,54.4,48.0,30.15,WNW,298,0.0,-999.0,79,-99.99,,,0.00,0,weatherlink.com 1.10,2013-03-05 10:32:00,
2013-03-05 05:47:00,54.5,48.0,30.15,WNW,302,1.0,-999.0,79,-99.99,,,0.00,0,weatherlink.com 1.10,2013-03-05 10:47:00,
2013-03-05 06:02:00,54.6,48.0,30.15,WNW,298,0.0,-999.0,79,-99.99,,,0.00,0,weatherlink.com 1.10,2013-03-05 11:02:00,
2013-03-05 06:32:00,54.2,47.0,30.16,WNW,284,2.0,-999.0,77,-99.99,,,0.00,0,weatherlink.com 1.10,2013-03-05 11:32:00,
2013-03-05 06:47:00,54.4,47.0,30.16,WNW,289,2.0,-999.0,77,-99.99,,,0.00,9,weatherlink.com 1.10,2013-03-05 11:47:00,
2013-03-05 07:02:00,54.7,48.0,30.17,WNW,291,1.0,-999.0,78,-99.99,,,0.00,18,weatherlink.com 1.10,2013-03-05 12:02:00,
2013-03-05 07:17:00,55.3,49.0,30.17,NW,308,2.0,-999.0,79,-99.99,,,0.00,90,weatherlink.com 1.10,2013-03-05 12:17:00,
2013-03-05 07:32:00,56.2,50.0,30.17,WNW,299,4.0,-999.0,79,-99.99,,,0.00,44,weatherlink.com 1.10,2013-03-05 12:32:00,
2013-03-05 07:47:00,56.9,50.0,30.16,NW,315,1.0,-999.0,79,-99.99,,,0.00,229,weatherlink.com 1.10,2013-03-05 12:47:00,
2013-03-05 08:17:00,60.0,53.0,30.18,WNW,300,0.0,-999.0,79,-99.99,,,0.00,364,weatherlink.com 1.10,2013-03-05 13:17:00,
2013-03-05 08:32:00,62.5,56.0,30.18,WNW,300,0.0,-999.0,79,-99.99,,,0.00,420,weatherlink.com 1.10,2013-03-05 13:32:00,
2013-03-05 08:47:00,64.8,58.0,30.18,WNW,300,0.0,-999.0,78,-99.99,,,0.00,483,weatherlink.com 1.10,2013-03-05 13:47:00,
2013-03-05 09:02:00,66.5,58.0,30.18,WNW,300,0.0,-999.0,75,-99.99,,,0.00,570,weatherlink.com 1.10,2013-03-05 14:02:00,
2013-03-05 09:17:00,67.2,59.0,30.18,WNW,300,0.0,-999.0,74,-99.99,,,0.00,441,weatherlink.com 1.10,2013-03-05 14:17:00,
2013-03-05 09:32:00,68.8,59.0,30.18,West,279,0.0,-999.0,71,-99.99,,,0.00,135,weatherlink.com 1.10,2013-03-05 14:32:00,
2013-03-05 10:02:00,73.8,62.0,30.17,ESE,115,3.0,-999.0,66,-99.99,,,0.00,737,weatherlink.com 1.10,2013-03-05 15:02:00,
2013-03-05 10:17:00,75.3,62.0,30.17,ESE,110,1.0,-999.0,63,-99.99,,,0.00,773,weatherlink.com 1.10,2013-03-05 15:17:00,
2013-03-05 10:32:00,76.0,62.0,30.17,ESE,114,0.0,-999.0,62,-99.99,,,0.00,837,weatherlink.com 1.10,2013-03-05 15:32:00,
2013-03-05 10:47:00,75.7,61.0,30.16,SE,135,0.0,-999.0,60,-99.99,,,0.00,838,weatherlink.com 1.10,2013-03-05 15:47:00,
2013-03-05 11:02:00,76.5,61.0,30.16,SE,134,5.0,-999.0,58,-99.99,,,0.00,860,weatherlink.com 1.10,2013-03-05 16:02:00,
2013-03-05 11:17:00,77.4,61.0,30.16,SSE,155,9.0,-999.0,58,-99.99,,,0.00,881,weatherlink.com 1.10,2013-03-05 16:17:00,
2013-03-05 11:32:00,77.2,60.0,30.16,SSE,150,12.0,-999.0,56,-99.99,,,0.00,953,weatherlink.com 1.10,2013-03-05 16:32:00,
2013-03-05 11:47:00,77.6,61.0,30.16,SSE,148,10.0,-999.0,57,-99.99,,,0.00,988,weatherlink.com 1.10,2013-03-05 16:47:00,
2013-03-05 12:02:00,77.5,61.0,30.16,SE,146,8.0,-999.0,58,-99.99,,,0.00,919,weatherlink.com 1.10,2013-03-05 17:02:00,
2013-03-05 12:17:00,78.4,63.0,30.16,SSE,164,0.0,-999.0,60,-99.99,,,0.00,930,weatherlink.com 1.10,2013-03-05 17:17:00,
2013-03-05 12:32:00,78.3,61.0,30.15,ESE,119,4.0,-999.0,56,-99.99,,,0.00,933,weatherlink.com 1.10,2013-03-05 17:32:00,
2013-03-05 12:48:00,79.1,62.0,30.15,SSE,166,5.0,-999.0,56,-99.99,,,0.00,926,weatherlink.com 1.10,2013-03-05 17:48:00,
2013-03-05 13:03:00,79.0,62.0,30.14,SSE,150,12.0,-999.0,56,-99.99,,,0.00,919,weatherlink.com 1.10,2013-03-05 18:03:00,
2013-03-05 13:18:00,78.9,62.0,30.13,SSE,150,6.0,-999.0,57,-99.99,,,0.00,911,weatherlink.com 1.10,2013-03-05 18:18:00,
2013-03-05 13:33:00,79.1,63.0,30.12,SSE,158,1.0,-999.0,59,-99.99,,,0.00,895,weatherlink.com 1.10,2013-03-05 18:33:00,
2013-03-05 13:48:00,79.5,63.0,30.11,SE,140,8.0,-999.0,57,-99.99,,,0.00,863,weatherlink.com 1.10,2013-03-05 18:48:00,
2013-03-05 14:03:00,78.9,62.0,30.11,SE,142,2.0,-999.0,57,-99.99,,,0.00,831,weatherlink.com 1.10,2013-03-05 19:03:00,
2013-03-05 14:18:00,78.0,61.0,30.10,SSE,155,9.0,-999.0,56,-99.99,,,0.00,802,weatherlink.com 1.10,2013-03-05 19:18:00,
2013-03-05 14:33:00,77.5,61.0,30.10,SE,128,7.0,-999.0,57,-99.99,,,0.00,768,weatherlink.com 1.10,2013-03-05 19:33:00,
2013-03-05 14:48:00,77.6,61.0,30.11,SE,132,10.0,-999.0,57,-99.99,,,0.00,735,weatherlink.com 1.10,2013-03-05 19:48:00,
2013-03-05 15:03:00,76.8,60.0,30.10,SE,126,6.0,-999.0,57,-99.99,,,0.00,675,weatherlink.com 1.10,2013-03-05 20:03:00,
2013-03-05 15:18:00,76.3,59.0,30.10,SSE,152,8.0,-999.0,56,-99.99,,,0.00,635,weatherlink.com 1.10,2013-03-05 20:18:00,
2013-03-05 15:33:00,75.7,61.0,30.09,SE,134,11.0,-999.0,61,-99.99,,,0.00,580,weatherlink.com 1.10,2013-03-05 20:33:00,
2013-03-05 15:48:00,74.9,61.0,30.09,SE,128,1.0,-999.0,62,-99.99,,,0.00,522,weatherlink.com 1.10,2013-03-05 20:48:00,
2013-03-05 16:03:00,74.6,61.0,30.09,SSE,165,8.0,-999.0,63,-99.99,,,0.00,473,weatherlink.com 1.10,2013-03-05 21:03:00,
2013-03-05 16:18:00,74.1,60.0,30.09,SE,134,10.0,-999.0,61,-99.99,,,0.00,417,weatherlink.com 1.10,2013-03-05 21:18:00,
2013-03-05 16:33:00,73.9,60.0,30.09,ESE,123,12.0,-999.0,62,-99.99,,,0.00,353,weatherlink.com 1.10,2013-03-05 21:33:00,
2013-03-05 16:48:00,73.2,59.0,30.09,SSE,147,6.0,-999.0,62,-99.99,,,0.00,297,weatherlink.com 1.10,2013-03-05 21:48:00,
2013-03-05 17:03:00,72.4,58.0,30.09,ESE,116,6.0,-999.0,61,-99.99,,,0.00,236,weatherlink.com 1.10,2013-03-05 22:03:00,
2013-03-05 17:18:00,72.0,59.0,30.09,SE,128,7.0,-999.0,64,-99.99,,,0.00,160,weatherlink.com 1.10,2013-03-05 22:18:00,
2013-03-05 17:33:00,71.3,59.0,30.09,SE,127,6.0,-999.0,66,-99.99,,,0.00,105,weatherlink.com 1.10,2013-03-05 22:33:00,
2013-03-05 17:48:00,70.7,59.0,30.09,SSE,155,5.0,-999.0,66,-99.99,,,0.00,60,weatherlink.com 1.10,2013-03-05 22:48:00,
2013-03-05 18:03:00,70.2,59.0,30.09,SSE,158,11.0,-999.0,68,-99.99,,,0.00,28,weatherlink.com 1.10,2013-03-05 23:03:00,
2013-03-05 18:18:00,69.4,58.0,30.09,SSE,153,5.0,-999.0,68,-99.99,,,0.00,9,weatherlink.com 1.10,2013-03-05 23:18:00,
2013-03-05 18:33:00,69.0,58.0,30.10,SE,132,8.0,-999.0,69,-99.99,,,0.00,0,weatherlink.com 1.10,2013-03-05 23:33:00,
2013-03-05 18:48:00,68.7,59.0,30.10,SSE,152,4.0,-999.0,71,-99.99,,,0.00,0,weatherlink.com 1.10,2013-03-05 23:48:00,
2013-03-05 19:03:00,68.4,59.0,30.10,South,188,10.0,-999.0,71,-99.99,,,0.00,0,weatherlink.com 1.10,2013-03-06 00:03:00,
2013-03-05 19:18:00,68.3,58.0,30.10,SSE,158,8.0,-999.0,70,-99.99,,,0.00,0,weatherlink.com 1.10,2013-03-06 00:18:00,
2013-03-05 19:33:00,68.3,59.0,30.10,SSW,192,8.0,-999.0,71,-99.99,,,0.00,0,weatherlink.com 1.10,2013-03-06 00:33:00,
2013-03-05 19:48:00,68.3,58.0,30.09,SSE,167,6.0,-999.0,70,-99.99,,,0.00,0,weatherlink.com 1.10,2013-03-06 00:48:00,
2013-03-05 20:03:00,68.3,59.0,30.10,South,184,3.0,-999.0,71,-99.99,,,0.00,0,weatherlink.com 1.10,2013-03-06 01:03:00,
2013-03-05 20:18:00,68.3,59.0,30.10,SSW,200,10.0,-999.0,71,-99.99,,,0.00,0,weatherlink.com 1.10,2013-03-06 01:18:00,
2013-03-05 20:33:00,68.0,59.0,30.10,South,170,8.0,-999.0,72,-99.99,,,0.00,0,weatherlink.com 1.10,2013-03-06 01:33:00,
2013-03-05 21:03:00,67.0,58.0,30.10,SW,214,8.0,-999.0,73,-99.99,,,0.00,0,weatherlink.com 1.10,2013-03-06 02:03:00,
2013-03-05 21:18:00,66.7,58.0,30.10,SW,223,5.0,-999.0,73,-99.99,,,0.00,0,weatherlink.com 1.10,2013-03-06 02:18:00,
2013-03-05 21:33:00,66.6,58.0,30.11,SSW,196,8.0,-999.0,74,-99.99,,,0.00,0,weatherlink.com 1.10,2013-03-06 02:33:00,
2013-03-05 21:48:00,66.4,58.0,30.11,SW,216,6.0,-999.0,74,-99.99,,,0.00,0,weatherlink.com 1.10,2013-03-06 02:48:00,
2013-03-05 22:03:00,66.2,58.0,30.11,SW,221,4.0,-999.0,75,-99.99,,,0.00,0,weatherlink.com 1.10,2013-03-06 03:03:00,
2013-03-05 22:18:00,66.0,58.0,30.10,SSW,209,9.0,-999.0,75,-99.99,,,0.00,0,weatherlink.com 1.10,2013-03-06 03:18:00,
2013-03-05 22:33:00,65.7,58.0,30.09,SSW,195,10.0,-999.0,76,-99.99,,,0.00,0,weatherlink.com 1.10,2013-03-06 03:33:00,
2013-03-05 22:48:00,65.4,58.0,30.10,SW,222,8.0,-999.0,76,-99.99,,,0.00,0,weatherlink.com 1.10,2013-03-06 03:48:00,
2013-03-05 23:03:00,65.4,58.0,30.09,SW,215,10.0,-999.0,77,-99.99,,,0.00,0,weatherlink.com 1.10,2013-03-06 04:03:00,
2013-03-05 23:18:00,65.2,58.0,30.09,SW,217,9.0,-999.0,77,-99.99,,,0.00,0,weatherlink.com 1.10,2013-03-06 04:18:00,
2013-03-05 23:33:00,65.1,58.0,30.09,SSW,213,11.0,-999.0,78,-99.99,,,0.00,0,weatherlink.com 1.10,2013-03-06 04:33:00,
2013-03-05 23:48:00,65.0,58.0,30.09,SSW,212,10.0,-999.0,78,-99.99,,,0.00,0,weatherlink.com 1.10,2013-03-06 04:48:00,